Open Full Screen Window  High Contrast Mode
February 26, 2017 11:20 PM EST
Weather Information
Wind Direction
  ---
Wind Speed
  00 kt (0 mph)
Wind Gust
  00 kt (0 mph)
Altimeter
30.18 in
Visibility
10 SM
Temperature
04° C
39° F
Dewpoint
-09° C
16° F
Humidity
39%
1hr Rain Fall
00.00 in.
24hr Rain Fall
00.00 in.
Sky Condition
Overcast @ 11,000 ft
Scattered @ 9,000 ft
VFR

METAR KI69 270420Z AUTO 00000KT 10SM SCT090 OVC110 04/M09 A3018 RMK AO2 T00411090

*Background is not an actual portrayal of the airport.